sensor_id;sensor_type;location;lat;lon;timestamp;temperature;humidity
66035;HTU21D;52805;51.074;5.842;2023-06-22T00:00:58;24.05;118.99
66035;HTU21D;52805;51.074;5.842;2023-06-22T00:03:25;24.00;118.99
66035;HTU21D;52805;51.074;5.842;2023-06-22T00:05:51;23.99;118.99
66035;HTU21D;52805;51.074;5.842;2023-06-22T00:08:18;23.96;118.99
66035;HTU21D;52805;51.074;5.842;2023-06-22T00:10:44;23.92;118.99
66035;HTU21D;52805;51.074;5.842;2023-06-22T00:13:12;23.90;118.99
66035;HTU21D;52805;51.074;5.842;2023-06-22T00:15:40;23.88;118.99
66035;HTU21D;52805;51.074;5.842;2023-06-22T00:18:08;23.89;118.99
66035;HTU21D;52805;51.074;5.842;2023-06-22T00:20:34;23.87;118.99
66035;HTU21D;52805;51.074;5.842;2023-06-22T00:23:04;23.85;118.99
66035;HTU21D;52805;51.074;5.842;2023-06-22T00:25:42;23.84;118.99
66035;HTU21D;52805;51.074;5.842;2023-06-22T00:28:08;23.84;118.99
66035;HTU21D;52805;51.074;5.842;2023-06-22T00:30:35;23.81;118.99
66035;HTU21D;52805;51.074;5.842;2023-06-22T00:33:01;23.80;118.99
66035;HTU21D;52805;51.074;5.842;2023-06-22T00:35:27;23.77;118.99
66035;HTU21D;52805;51.074;5.842;2023-06-22T00:37:59;23.74;118.99
66035;HTU21D;52805;51.074;5.842;2023-06-22T00:40:31;23.72;118.99
66035;HTU21D;52805;51.074;5.842;2023-06-22T00:42:58;23.69;118.99
66035;HTU21D;52805;51.074;5.842;2023-06-22T00:45:24;23.69;118.99
66035;HTU21D;52805;51.074;5.842;2023-06-22T00:47:56;23.67;118.99
66035;HTU21D;52805;51.074;5.842;2023-06-22T00:50:26;23.68;118.99
66035;HTU21D;52805;51.074;5.842;2023-06-22T00:52:56;23.62;118.99
66035;HTU21D;52805;51.074;5.842;2023-06-22T00:55:24;23.61;118.99
66035;HTU21D;52805;51.074;5.842;2023-06-22T00:57:52;23.60;118.99
66035;HTU21D;52805;51.074;5.842;2023-06-22T01:00:25;23.61;118.99
66035;HTU21D;52805;51.074;5.842;2023-06-22T01:02:53;23.62;118.99
66035;HTU21D;52805;51.074;5.842;2023-06-22T01:05:20;23.64;118.99
66035;HTU21D;52805;51.074;5.842;2023-06-22T01:11:26;23.60;118.99
66035;HTU21D;52805;51.074;5.842;2023-06-22T01:14:06;23.60;118.99
66035;HTU21D;52805;51.074;5.842;2023-06-22T01:16:41;23.59;118.99
66035;HTU21D;52805;51.074;5.842;2023-06-22T01:19:29;23.58;118.99
66035;HTU21D;52805;51.074;5.842;2023-06-22T01:22:00;23.58;118.99
66035;HTU21D;52805;51.074;5.842;2023-06-22T01:24:57;23.55;118.99
66035;HTU21D;52805;51.074;5.842;2023-06-22T01:30:31;23.50;118.99
66035;HTU21D;52805;51.074;5.842;2023-06-22T01:33:03;23.45;118.99
66035;HTU21D;52805;51.074;5.842;2023-06-22T01:35:30;23.44;118.99
66035;HTU21D;52805;51.074;5.842;2023-06-22T01:37:58;23.42;118.99
66035;HTU21D;52805;51.074;5.842;2023-06-22T01:40:25;23.40;118.99
66035;HTU21D;52805;51.074;5.842;2023-06-22T01:42:52;23.38;118.99
66035;HTU21D;52805;51.074;5.842;2023-06-22T01:45:19;23.38;118.99
66035;HTU21D;52805;51.074;5.842;2023-06-22T01:47:45;23.36;118.99
66035;HTU21D;52805;51.074;5.842;2023-06-22T01:50:11;23.30;118.99
66035;HTU21D;52805;51.074;5.842;2023-06-22T01:52:37;23.32;118.99
66035;HTU21D;52805;51.074;5.842;2023-06-22T01:55:03;23.28;118.99
66035;HTU21D;52805;51.074;5.842;2023-06-22T01:57:30;23.23;118.99
66035;HTU21D;52805;51.074;5.842;2023-06-22T02:00:02;23.18;118.99
66035;HTU21D;52805;51.074;5.842;2023-06-22T02:05:09;23.17;118.99
66035;HTU21D;52805;51.074;5.842;2023-06-22T02:08:02;23.18;118.99
66035;HTU21D;52805;51.074;5.842;2023-06-22T02:10:34;23.18;118.99
66035;HTU21D;52805;51.074;5.842;2023-06-22T02:13:04;23.18;118.99
66035;HTU21D;52805;51.074;5.842;2023-06-22T02:15:32;23.16;118.99
66035;HTU21D;52805;51.074;5.842;2023-06-22T02:17:59;23.16;118.99
66035;HTU21D;52805;51.074;5.842;2023-06-22T02:20:25;23.18;118.99
66035;HTU21D;52805;51.074;5.842;2023-06-22T02:22:50;23.18;118.99
66035;HTU21D;52805;51.074;5.842;2023-06-22T02:25:16;23.15;118.99
66035;HTU21D;52805;51.074;5.842;2023-06-22T02:27:44;23.14;118.99
66035;HTU21D;52805;51.074;5.842;2023-06-22T02:30:10;23.11;118.99
66035;HTU21D;52805;51.074;5.842;2023-06-22T02:32:38;23.07;118.99
66035;HTU21D;52805;51.074;5.842;2023-06-22T02:35:07;23.01;118.99
66035;HTU21D;52805;51.074;5.842;2023-06-22T02:37:37;22.99;118.99
66035;HTU21D;52805;51.074;5.842;2023-06-22T02:40:06;22.97;118.99
66035;HTU21D;52805;51.074;5.842;2023-06-22T02:42:33;22.96;118.99
66035;HTU21D;52805;51.074;5.842;2023-06-22T02:44:59;22.97;118.99
66035;HTU21D;52805;51.074;5.842;2023-06-22T02:47:25;22.94;118.99
66035;HTU21D;52805;51.074;5.842;2023-06-22T02:49:51;22.93;118.99
66035;HTU21D;52805;51.074;5.842;2023-06-22T02:52:17;22.90;118.99
66035;HTU21D;52805;51.074;5.842;2023-06-22T02:54:44;22.90;118.99
66035;HTU21D;52805;51.074;5.842;2023-06-22T02:57:12;22.87;118.99
66035;HTU21D;52805;51.074;5.842;2023-06-22T02:59:42;22.85;118.99
66035;HTU21D;52805;51.074;5.842;2023-06-22T03:02:10;22.84;118.99
66035;HTU21D;52805;51.074;5.842;2023-06-22T03:04:36;22.84;118.99
66035;HTU21D;52805;51.074;5.842;2023-06-22T03:07:02;22.81;118.99
66035;HTU21D;52805;51.074;5.842;2023-06-22T03:09:30;22.78;118.99
66035;HTU21D;52805;51.074;5.842;2023-06-22T03:11:57;22.78;118.99
66035;HTU21D;52805;51.074;5.842;2023-06-22T03:14:26;22.78;118.99
66035;HTU21D;52805;51.074;5.842;2023-06-22T03:16:52;22.75;118.99
66035;HTU21D;52805;51.074;5.842;2023-06-22T03:19:18;22.70;118.99
66035;HTU21D;52805;51.074;5.842;2023-06-22T03:21:45;22.70;118.99
66035;HTU21D;52805;51.074;5.842;2023-06-22T03:24:11;22.65;118.99
66035;HTU21D;52805;51.074;5.842;2023-06-22T03:26:37;22.64;118.99
66035;HTU21D;52805;51.074;5.842;2023-06-22T03:29:03;22.63;118.99
66035;HTU21D;52805;51.074;5.842;2023-06-22T03:31:30;22.61;118.99
66035;HTU21D;52805;51.074;5.842;2023-06-22T03:33:56;22.58;118.99
66035;HTU21D;52805;51.074;5.842;2023-06-22T03:36:23;22.56;118.99
66035;HTU21D;52805;51.074;5.842;2023-06-22T03:38:50;22.52;118.99
66035;HTU21D;52805;51.074;5.842;2023-06-22T03:41:16;22.54;118.99
66035;HTU21D;52805;51.074;5.842;2023-06-22T03:43:43;22.53;118.99
66035;HTU21D;52805;51.074;5.842;2023-06-22T03:46:08;22.52;118.99
66035;HTU21D;52805;51.074;5.842;2023-06-22T03:48:34;22.48;118.99
66035;HTU21D;52805;51.074;5.842;2023-06-22T03:51:01;22.51;118.99
66035;HTU21D;52805;51.074;5.842;2023-06-22T03:53:28;22.54;118.99
66035;HTU21D;52805;51.074;5.842;2023-06-22T03:55:55;22.56;118.99
66035;HTU21D;52805;51.074;5.842;2023-06-22T03:58:21;22.60;118.99
66035;HTU21D;52805;51.074;5.842;2023-06-22T04:00:49;22.58;118.99
66035;HTU21D;52805;51.074;5.842;2023-06-22T04:03:15;22.56;118.99
66035;HTU21D;52805;51.074;5.842;2023-06-22T04:05:41;22.57;118.99
66035;HTU21D;52805;51.074;5.842;2023-06-22T04:08:07;22.60;118.99
66035;HTU21D;52805;51.074;5.842;2023-06-22T04:10:34;22.60;118.99
66035;HTU21D;52805;51.074;5.842;2023-06-22T04:13:00;22.61;118.99
66035;HTU21D;52805;51.074;5.842;2023-06-22T04:15:26;22.61;118.99
66035;HTU21D;52805;51.074;5.842;2023-06-22T04:17:51;22.61;118.99
66035;HTU21D;52805;51.074;5.842;2023-06-22T04:20:17;22.60;118.99
66035;HTU21D;52805;51.074;5.842;2023-06-22T04:22:43;22.58;118.99
66035;HTU21D;52805;51.074;5.842;2023-06-22T04:25:08;22.60;118.99
66035;HTU21D;52805;51.074;5.842;2023-06-22T04:27:34;22.61;118.99
66035;HTU21D;52805;51.074;5.842;2023-06-22T04:30:09;22.63;118.99
66035;HTU21D;52805;51.074;5.842;2023-06-22T04:32:35;22.66;118.99
66035;HTU21D;52805;51.074;5.842;2023-06-22T04:35:05;22.58;118.99
66035;HTU21D;52805;51.074;5.842;2023-06-22T04:37:32;22.55;118.99
66035;HTU21D;52805;51.074;5.842;2023-06-22T04:39:57;22.56;118.99
66035;HTU21D;52805;51.074;5.842;2023-06-22T04:42:26;22.54;118.99
66035;HTU21D;52805;51.074;5.842;2023-06-22T04:44:51;22.57;118.99
66035;HTU21D;52805;51.074;5.842;2023-06-22T04:47:17;22.64;118.99
66035;HTU21D;52805;51.074;5.842;2023-06-22T04:49:43;22.68;118.99
66035;HTU21D;52805;51.074;5.842;2023-06-22T04:52:11;22.68;118.99
66035;HTU21D;52805;51.074;5.842;2023-06-22T04:54:38;22.73;118.99
66035;HTU21D;52805;51.074;5.842;2023-06-22T04:57:07;22.75;118.99
66035;HTU21D;52805;51.074;5.842;2023-06-22T04:59:36;22.78;118.99
66035;HTU21D;52805;51.074;5.842;2023-06-22T05:02:05;22.78;118.99
66035;HTU21D;52805;51.074;5.842;2023-06-22T05:04:32;22.77;118.99
66035;HTU21D;52805;51.074;5.842;2023-06-22T05:06:59;22.76;118.99
66035;HTU21D;52805;51.074;5.842;2023-06-22T05:09:26;22.73;118.99
66035;HTU21D;52805;51.074;5.842;2023-06-22T05:11:52;22.72;118.99
66035;HTU21D;52805;51.074;5.842;2023-06-22T05:14:18;22.71;118.99
66035;HTU21D;52805;51.074;5.842;2023-06-22T05:16:45;22.75;118.99
66035;HTU21D;52805;51.074;5.842;2023-06-22T05:19:12;22.77;118.99
66035;HTU21D;52805;51.074;5.842;2023-06-22T05:21:37;22.82;118.99
66035;HTU21D;52805;51.074;5.842;2023-06-22T05:24:04;22.83;118.99
66035;HTU21D;52805;51.074;5.842;2023-06-22T05:26:31;22.84;118.99
66035;HTU21D;52805;51.074;5.842;2023-06-22T05:28:58;22.83;118.99
66035;HTU21D;52805;51.074;5.842;2023-06-22T05:31:24;22.79;118.99
66035;HTU21D;52805;51.074;5.842;2023-06-22T05:33:52;22.81;118.99
66035;HTU21D;52805;51.074;5.842;2023-06-22T05:36:18;22.81;118.99
66035;HTU21D;52805;51.074;5.842;2023-06-22T05:38:46;22.84;118.99
66035;HTU21D;52805;51.074;5.842;2023-06-22T05:41:11;22.88;118.99
66035;HTU21D;52805;51.074;5.842;2023-06-22T05:43:37;22.93;118.99
66035;HTU21D;52805;51.074;5.842;2023-06-22T05:46:04;22.95;118.99
66035;HTU21D;52805;51.074;5.842;2023-06-22T05:48:30;22.98;118.99
66035;HTU21D;52805;51.074;5.842;2023-06-22T05:50:56;22.98;118.99
66035;HTU21D;52805;51.074;5.842;2023-06-22T05:53:22;23.01;118.99
66035;HTU21D;52805;51.074;5.842;2023-06-22T05:55:48;22.97;118.99
66035;HTU21D;52805;51.074;5.842;2023-06-22T05:58:14;23.00;118.99
66035;HTU21D;52805;51.074;5.842;2023-06-22T06:00:41;23.03;118.99
66035;HTU21D;52805;51.074;5.842;2023-06-22T06:03:08;23.03;118.99
66035;HTU21D;52805;51.074;5.842;2023-06-22T06:05:34;23.05;118.99
66035;HTU21D;52805;51.074;5.842;2023-06-22T06:08:01;23.05;118.99
66035;HTU21D;52805;51.074;5.842;2023-06-22T06:10:28;23.05;118.99
66035;HTU21D;52805;51.074;5.842;2023-06-22T06:12:55;23.02;118.99
66035;HTU21D;52805;51.074;5.842;2023-06-22T06:15:22;23.01;118.99
66035;HTU21D;52805;51.074;5.842;2023-06-22T06:17:52;22.98;118.99
66035;HTU21D;52805;51.074;5.842;2023-06-22T06:20:20;22.97;118.99
66035;HTU21D;52805;51.074;5.842;2023-06-22T06:22:47;22.94;118.99
66035;HTU21D;52805;51.074;5.842;2023-06-22T06:25:13;22.92;118.99
66035;HTU21D;52805;51.074;5.842;2023-06-22T06:27:46;22.95;118.99
66035;HTU21D;52805;51.074;5.842;2023-06-22T06:30:13;22.96;118.99
66035;HTU21D;52805;51.074;5.842;2023-06-22T06:32:40;22.95;118.99
66035;HTU21D;52805;51.074;5.842;2023-06-22T06:35:08;22.92;118.99
66035;HTU21D;52805;51.074;5.842;2023-06-22T06:37:36;22.87;118.99
66035;HTU21D;52805;51.074;5.842;2023-06-22T06:40:06;22.81;118.99
66035;HTU21D;52805;51.074;5.842;2023-06-22T06:42:39;22.72;118.99
66035;HTU21D;52805;51.074;5.842;2023-06-22T06:45:19;22.64;118.99
66035;HTU21D;52805;51.074;5.842;2023-06-22T06:47:46;22.57;118.99
66035;HTU21D;52805;51.074;5.842;2023-06-22T06:50:12;22.51;118.99
66035;HTU21D;52805;51.074;5.842;2023-06-22T06:52:38;22.50;118.99
66035;HTU21D;52805;51.074;5.842;2023-06-22T06:55:05;22.48;118.99
66035;HTU21D;52805;51.074;5.842;2023-06-22T06:57:35;22.51;118.99
66035;HTU21D;52805;51.074;5.842;2023-06-22T07:00:02;22.43;118.99
66035;HTU21D;52805;51.074;5.842;2023-06-22T07:02:34;22.43;118.99
66035;HTU21D;52805;51.074;5.842;2023-06-22T07:04:59;22.48;118.99
66035;HTU21D;52805;51.074;5.842;2023-06-22T07:07:28;22.54;118.99
66035;HTU21D;52805;51.074;5.842;2023-06-22T07:09:53;22.58;118.99
66035;HTU21D;52805;51.074;5.842;2023-06-22T07:12:19;22.62;118.99
66035;HTU21D;52805;51.074;5.842;2023-06-22T07:14:45;22.63;118.99
66035;HTU21D;52805;51.074;5.842;2023-06-22T07:17:10;22.65;118.99
66035;HTU21D;52805;51.074;5.842;2023-06-22T07:19:36;22.70;118.99
66035;HTU21D;52805;51.074;5.842;2023-06-22T07:22:02;22.75;118.99
66035;HTU21D;52805;51.074;5.842;2023-06-22T07:24:27;22.85;118.99
66035;HTU21D;52805;51.074;5.842;2023-06-22T07:26:53;23.00;118.99
66035;HTU21D;52805;51.074;5.842;2023-06-22T07:29:20;23.08;118.99
66035;HTU21D;52805;51.074;5.842;2023-06-22T07:31:47;23.20;118.99
66035;HTU21D;52805;51.074;5.842;2023-06-22T07:34:13;23.31;118.99
66035;HTU21D;52805;51.074;5.842;2023-06-22T07:36:40;23.42;118.99
66035;HTU21D;52805;51.074;5.842;2023-06-22T07:39:05;23.54;118.99
66035;HTU21D;52805;51.074;5.842;2023-06-22T07:41:32;23.71;118.99
66035;HTU21D;52805;51.074;5.842;2023-06-22T07:43:58;23.89;118.99
66035;HTU21D;52805;51.074;5.842;2023-06-22T07:46:23;24.09;118.99
66035;HTU21D;52805;51.074;5.842;2023-06-22T07:48:49;24.25;118.99
66035;HTU21D;52805;51.074;5.842;2023-06-22T07:51:15;24.40;118.99
66035;HTU21D;52805;51.074;5.842;2023-06-22T07:53:42;24.49;118.99
66035;HTU21D;52805;51.074;5.842;2023-06-22T07:56:11;24.57;118.99
66035;HTU21D;52805;51.074;5.842;2023-06-22T07:58:37;24.70;118.99
66035;HTU21D;52805;51.074;5.842;2023-06-22T08:01:03;24.77;118.99
66035;HTU21D;52805;51.074;5.842;2023-06-22T08:03:29;24.88;118.99
66035;HTU21D;52805;51.074;5.842;2023-06-22T08:05:55;25.00;118.99
66035;HTU21D;52805;51.074;5.842;2023-06-22T08:08:21;25.00;118.99
66035;HTU21D;52805;51.074;5.842;2023-06-22T08:10:47;25.10;118.99
66035;HTU21D;52805;51.074;5.842;2023-06-22T08:13:12;25.22;118.99
66035;HTU21D;52805;51.074;5.842;2023-06-22T08:15:38;25.35;118.99
66035;HTU21D;52805;51.074;5.842;2023-06-22T08:18:04;25.50;118.99
66035;HTU21D;52805;51.074;5.842;2023-06-22T08:20:29;25.61;118.99
66035;HTU21D;52805;51.074;5.842;2023-06-22T08:22:55;25.67;118.99
66035;HTU21D;52805;51.074;5.842;2023-06-22T08:25:23;25.79;118.99
66035;HTU21D;52805;51.074;5.842;2023-06-22T08:27:49;25.84;118.99
66035;HTU21D;52805;51.074;5.842;2023-06-22T08:30:15;25.97;118.99
66035;HTU21D;52805;51.074;5.842;2023-06-22T08:32:41;26.09;118.99
66035;HTU21D;52805;51.074;5.842;2023-06-22T08:35:07;26.17;118.99
66035;HTU21D;52805;51.074;5.842;2023-06-22T08:37:36;26.16;118.99
66035;HTU21D;52805;51.074;5.842;2023-06-22T08:40:07;26.26;118.99
66035;HTU21D;52805;51.074;5.842;2023-06-22T08:42:35;26.35;118.99
66035;HTU21D;52805;51.074;5.842;2023-06-22T08:45:00;26.49;118.99
66035;HTU21D;52805;51.074;5.842;2023-06-22T08:47:29;26.60;118.99
66035;HTU21D;52805;51.074;5.842;2023-06-22T08:49:55;26.61;118.99
66035;HTU21D;52805;51.074;5.842;2023-06-22T08:52:20;26.62;118.99
66035;HTU21D;52805;51.074;5.842;2023-06-22T08:54:47;26.67;118.99
66035;HTU21D;52805;51.074;5.842;2023-06-22T08:57:13;26.68;118.99
66035;HTU21D;52805;51.074;5.842;2023-06-22T08:59:38;26.75;118.99
66035;HTU21D;52805;51.074;5.842;2023-06-22T09:02:05;26.82;118.99
66035;HTU21D;52805;51.074;5.842;2023-06-22T09:04:31;26.97;118.99
66035;HTU21D;52805;51.074;5.842;2023-06-22T09:07:00;27.06;118.99
66035;HTU21D;52805;51.074;5.842;2023-06-22T09:09:26;27.16;118.99
66035;HTU21D;52805;51.074;5.842;2023-06-22T09:11:52;27.22;118.99
66035;HTU21D;52805;51.074;5.842;2023-06-22T09:14:18;27.21;118.99
66035;HTU21D;52805;51.074;5.842;2023-06-22T09:16:44;27.19;118.99
66035;HTU21D;52805;51.074;5.842;2023-06-22T09:19:10;27.20;118.99
66035;HTU21D;52805;51.074;5.842;2023-06-22T09:21:39;27.26;118.99
66035;HTU21D;52805;51.074;5.842;2023-06-22T09:24:05;27.27;118.99
66035;HTU21D;52805;51.074;5.842;2023-06-22T09:26:31;27.26;118.99
66035;HTU21D;52805;51.074;5.842;2023-06-22T09:28:56;27.26;118.99
66035;HTU21D;52805;51.074;5.842;2023-06-22T09:31:23;27.30;118.99
66035;HTU21D;52805;51.074;5.842;2023-06-22T09:33:52;27.39;118.99
66035;HTU21D;52805;51.074;5.842;2023-06-22T09:36:18;27.45;118.99
66035;HTU21D;52805;51.074;5.842;2023-06-22T09:38:44;27.46;118.99
66035;HTU21D;52805;51.074;5.842;2023-06-22T09:41:10;27.31;118.99
66035;HTU21D;52805;51.074;5.842;2023-06-22T09:43:35;27.23;118.99
66035;HTU21D;52805;51.074;5.842;2023-06-22T09:46:01;27.15;118.99
66035;HTU21D;52805;51.074;5.842;2023-06-22T09:48:28;27.10;118.99
66035;HTU21D;52805;51.074;5.842;2023-06-22T09:50:55;27.06;118.99
66035;HTU21D;52805;51.074;5.842;2023-06-22T09:53:21;26.85;118.99
66035;HTU21D;52805;51.074;5.842;2023-06-22T09:55:47;26.78;118.99
66035;HTU21D;52805;51.074;5.842;2023-06-22T09:58:12;26.76;118.99
66035;HTU21D;52805;51.074;5.842;2023-06-22T10:00:38;26.69;118.99
66035;HTU21D;52805;51.074;5.842;2023-06-22T10:03:04;26.63;118.99
66035;HTU21D;52805;51.074;5.842;2023-06-22T10:05:29;26.56;118.99
66035;HTU21D;52805;51.074;5.842;2023-06-22T10:07:55;26.45;118.99
66035;HTU21D;52805;51.074;5.842;2023-06-22T10:10:21;26.32;118.99
66035;HTU21D;52805;51.074;5.842;2023-06-22T10:12:55;26.24;118.99
66035;HTU21D;52805;51.074;5.842;2023-06-22T10:15:22;26.16;118.99
66035;HTU21D;52805;51.074;5.842;2023-06-22T10:17:48;26.09;118.99
66035;HTU21D;52805;51.074;5.842;2023-06-22T10:20:14;26.04;118.99
66035;HTU21D;52805;51.074;5.842;2023-06-22T10:22:41;25.98;118.99
66035;HTU21D;52805;51.074;5.842;2023-06-22T10:25:08;25.87;118.99
66035;HTU21D;52805;51.074;5.842;2023-06-22T10:27:33;25.76;118.99
66035;HTU21D;52805;51.074;5.842;2023-06-22T10:29:59;25.72;118.99
66035;HTU21D;52805;51.074;5.842;2023-06-22T10:32:25;25.67;118.99
66035;HTU21D;52805;51.074;5.842;2023-06-22T10:34:50;25.62;118.99
66035;HTU21D;52805;51.074;5.842;2023-06-22T10:37:16;25.49;118.99
66035;HTU21D;52805;51.074;5.842;2023-06-22T10:39:42;25.38;118.99
66035;HTU21D;52805;51.074;5.842;2023-06-22T10:42:07;25.22;118.99
66035;HTU21D;52805;51.074;5.842;2023-06-22T10:44:33;25.07;118.99
66035;HTU21D;52805;51.074;5.842;2023-06-22T10:46:59;24.93;118.99
66035;HTU21D;52805;51.074;5.842;2023-06-22T10:49:24;24.82;118.99
66035;HTU21D;52805;51.074;5.842;2023-06-22T10:51:50;24.71;118.99
66035;HTU21D;52805;51.074;5.842;2023-06-22T10:54:16;24.61;118.99
66035;HTU21D;52805;51.074;5.842;2023-06-22T10:56:43;24.54;118.99
66035;HTU21D;52805;51.074;5.842;2023-06-22T10:59:12;24.46;118.99
66035;HTU21D;52805;51.074;5.842;2023-06-22T11:01:38;24.32;118.99
66035;HTU21D;52805;51.074;5.842;2023-06-22T11:04:03;24.23;118.99
66035;HTU21D;52805;51.074;5.842;2023-06-22T11:06:29;24.11;118.99
66035;HTU21D;52805;51.074;5.842;2023-06-22T11:08:55;24.00;118.99
66035;HTU21D;52805;51.074;5.842;2023-06-22T11:11:21;23.94;118.99
66035;HTU21D;52805;51.074;5.842;2023-06-22T11:13:46;23.96;118.99
66035;HTU21D;52805;51.074;5.842;2023-06-22T11:16:12;24.03;118.99
66035;HTU21D;52805;51.074;5.842;2023-06-22T11:18:38;24.13;118.99
66035;HTU21D;52805;51.074;5.842;2023-06-22T11:21:04;24.30;118.99
66035;HTU21D;52805;51.074;5.842;2023-06-22T11:23:29;24.46;118.99
66035;HTU21D;52805;51.074;5.842;2023-06-22T11:25:55;24.63;118.99
66035;HTU21D;52805;51.074;5.842;2023-06-22T11:28:21;24.76;118.99
66035;HTU21D;52805;51.074;5.842;2023-06-22T11:30:46;24.78;118.99
66035;HTU21D;52805;51.074;5.842;2023-06-22T11:33:15;24.68;118.99
66035;HTU21D;52805;51.074;5.842;2023-06-22T11:35:41;24.64;118.99
66035;HTU21D;52805;51.074;5.842;2023-06-22T11:38:07;24.63;118.99
66035;HTU21D;52805;51.074;5.842;2023-06-22T11:40:33;24.69;118.99
66035;HTU21D;52805;51.074;5.842;2023-06-22T11:42:58;24.77;118.99
66035;HTU21D;52805;51.074;5.842;2023-06-22T11:45:24;24.85;118.99
66035;HTU21D;52805;51.074;5.842;2023-06-22T11:47:50;24.94;118.99
66035;HTU21D;52805;51.074;5.842;2023-06-22T11:50:16;24.99;118.99
66035;HTU21D;52805;51.074;5.842;2023-06-22T11:52:41;25.00;118.99
66035;HTU21D;52805;51.074;5.842;2023-06-22T11:55:07;24.94;118.99
66035;HTU21D;52805;51.074;5.842;2023-06-22T11:57:35;24.89;118.99
66035;HTU21D;52805;51.074;5.842;2023-06-22T12:00:02;24.82;118.99
66035;HTU21D;52805;51.074;5.842;2023-06-22T12:02:32;24.86;118.99
66035;HTU21D;52805;51.074;5.842;2023-06-22T12:04:57;24.78;118.99
66035;HTU21D;52805;51.074;5.842;2023-06-22T12:07:23;24.77;118.99
66035;HTU21D;52805;51.074;5.842;2023-06-22T12:09:49;24.71;118.99
66035;HTU21D;52805;51.074;5.842;2023-06-22T12:12:15;24.63;118.99
66035;HTU21D;52805;51.074;5.842;2023-06-22T12:14:41;24.54;118.99
66035;HTU21D;52805;51.074;5.842;2023-06-22T12:17:06;24.40;118.99
66035;HTU21D;52805;51.074;5.842;2023-06-22T12:19:32;24.25;118.99
66035;HTU21D;52805;51.074;5.842;2023-06-22T12:21:57;24.13;118.99
66035;HTU21D;52805;51.074;5.842;2023-06-22T12:24:23;24.05;118.99
66035;HTU21D;52805;51.074;5.842;2023-06-22T12:26:49;23.97;118.99
66035;HTU21D;52805;51.074;5.842;2023-06-22T12:29:15;23.96;118.99
66035;HTU21D;52805;51.074;5.842;2023-06-22T12:31:40;23.89;118.99
66035;HTU21D;52805;51.074;5.842;2023-06-22T12:34:07;23.81;118.99
66035;HTU21D;52805;51.074;5.842;2023-06-22T12:36:33;23.70;118.99
66035;HTU21D;52805;51.074;5.842;2023-06-22T12:38:58;23.60;118.99
66035;HTU21D;52805;51.074;5.842;2023-06-22T12:41:24;23.56;118.99
66035;HTU21D;52805;51.074;5.842;2023-06-22T12:43:49;23.62;118.99
66035;HTU21D;52805;51.074;5.842;2023-06-22T12:46:15;23.67;118.99
66035;HTU21D;52805;51.074;5.842;2023-06-22T12:48:41;23.73;118.99
66035;HTU21D;52805;51.074;5.842;2023-06-22T12:51:09;23.76;118.99
66035;HTU21D;52805;51.074;5.842;2023-06-22T12:53:35;23.74;118.99
66035;HTU21D;52805;51.074;5.842;2023-06-22T12:56:01;23.72;118.99
66035;HTU21D;52805;51.074;5.842;2023-06-22T12:58:26;23.74;118.99
66035;HTU21D;52805;51.074;5.842;2023-06-22T13:00:52;23.70;118.99
66035;HTU21D;52805;51.074;5.842;2023-06-22T13:03:18;23.66;118.99
66035;HTU21D;52805;51.074;5.842;2023-06-22T13:05:44;23.60;118.99
66035;HTU21D;52805;51.074;5.842;2023-06-22T13:08:10;23.57;118.99
66035;HTU21D;52805;51.074;5.842;2023-06-22T13:10:36;23.49;118.99
66035;HTU21D;52805;51.074;5.842;2023-06-22T13:13:02;23.44;118.99
66035;HTU21D;52805;51.074;5.842;2023-06-22T13:15:30;23.34;118.99
66035;HTU21D;52805;51.074;5.842;2023-06-22T13:17:56;23.23;118.99
66035;HTU21D;52805;51.074;5.842;2023-06-22T13:20:22;23.14;118.99
66035;HTU21D;52805;51.074;5.842;2023-06-22T13:22:47;23.15;118.99
66035;HTU21D;52805;51.074;5.842;2023-06-22T13:25:13;23.03;118.99
66035;HTU21D;52805;51.074;5.842;2023-06-22T13:27:44;23.01;118.99
66035;HTU21D;52805;51.074;5.842;2023-06-22T13:30:10;22.97;118.99
66035;HTU21D;52805;51.074;5.842;2023-06-22T13:32:36;23.00;118.99
66035;HTU21D;52805;51.074;5.842;2023-06-22T13:35:02;22.91;118.99
66035;HTU21D;52805;51.074;5.842;2023-06-22T13:37:28;22.85;118.99
66035;HTU21D;52805;51.074;5.842;2023-06-22T13:39:54;22.82;118.99
66035;HTU21D;52805;51.074;5.842;2023-06-22T13:42:21;22.78;118.99
66035;HTU21D;52805;51.074;5.842;2023-06-22T13:44:47;22.70;118.99
66035;HTU21D;52805;51.074;5.842;2023-06-22T13:47:12;22.68;118.99
66035;HTU21D;52805;51.074;5.842;2023-06-22T13:49:38;22.55;118.99
66035;HTU21D;52805;51.074;5.842;2023-06-22T13:52:04;22.52;118.99
66035;HTU21D;52805;51.074;5.842;2023-06-22T13:54:35;22.46;118.99
66035;HTU21D;52805;51.074;5.842;2023-06-22T13:57:00;22.40;118.99
66035;HTU21D;52805;51.074;5.842;2023-06-22T13:59:26;22.39;118.99
66035;HTU21D;52805;51.074;5.842;2023-06-22T14:01:53;22.33;118.99
66035;HTU21D;52805;51.074;5.842;2023-06-22T14:04:19;22.32;118.99
66035;HTU21D;52805;51.074;5.842;2023-06-22T14:06:44;22.34;118.99
66035;HTU21D;52805;51.074;5.842;2023-06-22T14:09:10;22.28;118.99
66035;HTU21D;52805;51.074;5.842;2023-06-22T14:11:36;22.26;118.99
66035;HTU21D;52805;51.074;5.842;2023-06-22T14:14:01;22.26;118.99
66035;HTU21D;52805;51.074;5.842;2023-06-22T14:16:27;22.21;118.99
66035;HTU21D;52805;51.074;5.842;2023-06-22T14:18:53;22.13;118.99
66035;HTU21D;52805;51.074;5.842;2023-06-22T14:21:19;22.11;118.99
66035;HTU21D;52805;51.074;5.842;2023-06-22T14:23:45;21.99;118.99
66035;HTU21D;52805;51.074;5.842;2023-06-22T14:26:15;21.75;118.99
66035;HTU21D;52805;51.074;5.842;2023-06-22T14:28:44;21.61;118.99
66035;HTU21D;52805;51.074;5.842;2023-06-22T14:31:16;21.53;118.99
66035;HTU21D;52805;51.074;5.842;2023-06-22T14:33:48;21.39;118.99
66035;HTU21D;52805;51.074;5.842;2023-06-22T14:36:15;21.22;118.99
66035;HTU21D;52805;51.074;5.842;2023-06-22T14:38:41;21.07;118.99
66035;HTU21D;52805;51.074;5.842;2023-06-22T14:41:07;21.06;118.99
66035;HTU21D;52805;51.074;5.842;2023-06-22T14:43:32;20.99;118.99
66035;HTU21D;52805;51.074;5.842;2023-06-22T14:45:58;20.79;118.99
66035;HTU21D;52805;51.074;5.842;2023-06-22T14:48:24;20.79;118.99
66035;HTU21D;52805;51.074;5.842;2023-06-22T14:50:49;20.62;118.99
66035;HTU21D;52805;51.074;5.842;2023-06-22T14:53:15;20.50;118.99
66035;HTU21D;52805;51.074;5.842;2023-06-22T14:55:41;20.35;118.99
66035;HTU21D;52805;51.074;5.842;2023-06-22T14:58:07;20.20;118.99
66035;HTU21D;52805;51.074;5.842;2023-06-22T15:00:32;20.09;118.99
66035;HTU21D;52805;51.074;5.842;2023-06-22T15:02:58;19.86;118.99
66035;HTU21D;52805;51.074;5.842;2023-06-22T15:05:25;17.81;118.99
66035;HTU21D;52805;51.074;5.842;2023-06-22T15:07:51;17.49;118.99
66035;HTU21D;52805;51.074;5.842;2023-06-22T15:10:16;17.47;118.99